Terminal Aerodrome Forecast
Issued by NWS

Home | Current Version | Previous Version | Text Only | Print | Product List | Glossary Off
Versions: 1 2 3 4 5 6 7 8 9 10 11 12 13 14 15 16 17 18 19

000
FTUS43 KABR 201700 CCA
TAFPIR
TAF COR
KPIR 201755Z 2018/2118 15011KT P6SM SCT100 BKN250
     FM202100 14009KT P6SM -SHRA VCTS BKN070CB
     FM210100 14006KT P6SM BKN150
     FM210900 35008KT P6SM SKC=

USA.gov is the U.S. government's official web portal to all federal, state and local government web resources and services.